sensor_id;sensor_type;location;lat;lon;timestamp;P1;durP1;ratioP1;P2;durP2;ratioP2
76749;SDS011;66447;35.844;14.468;2023-05-18T00:00:03;17.35;;;6.40;;
76749;SDS011;66447;35.844;14.468;2023-05-18T00:15:12;16.63;;;6.15;;
76749;SDS011;66447;35.844;14.468;2023-05-18T00:30:14;13.05;;;6.03;;
76749;SDS011;66447;35.844;14.468;2023-05-18T00:45:16;12.20;;;6.30;;
76749;SDS011;66447;35.844;14.468;2023-05-18T01:00:18;12.93;;;5.43;;
76749;SDS011;66447;35.844;14.468;2023-05-18T01:15:31;12.48;;;5.57;;
76749;SDS011;66447;35.844;14.468;2023-05-18T01:30:38;15.85;;;6.95;;
76749;SDS011;66447;35.844;14.468;2023-05-18T01:45:43;14.95;;;5.10;;
76749;SDS011;66447;35.844;14.468;2023-05-18T02:00:48;14.10;;;5.85;;
76749;SDS011;66447;35.844;14.468;2023-05-18T02:15:51;16.38;;;6.43;;
76749;SDS011;66447;35.844;14.468;2023-05-18T02:30:52;15.13;;;5.72;;
76749;SDS011;66447;35.844;14.468;2023-05-18T02:45:53;12.88;;;4.47;;
76749;SDS011;66447;35.844;14.468;2023-05-18T03:00:55;12.25;;;5.85;;
76749;SDS011;66447;35.844;14.468;2023-05-18T03:15:59;13.82;;;5.97;;
76749;SDS011;66447;35.844;14.468;2023-05-18T03:31:00;9.63;;;5.70;;
76749;SDS011;66447;35.844;14.468;2023-05-18T03:46:02;16.65;;;6.68;;
76749;SDS011;66447;35.844;14.468;2023-05-18T04:01:03;12.15;;;5.18;;
76749;SDS011;66447;35.844;14.468;2023-05-18T04:16:05;12.60;;;5.78;;
76749;SDS011;66447;35.844;14.468;2023-05-18T04:31:07;15.82;;;5.22;;
76749;SDS011;66447;35.844;14.468;2023-05-18T04:46:13;18.50;;;7.20;;
76749;SDS011;66447;35.844;14.468;2023-05-18T05:01:17;18.00;;;5.35;;
76749;SDS011;66447;35.844;14.468;2023-05-18T05:16:19;12.65;;;4.55;;
76749;SDS011;66447;35.844;14.468;2023-05-18T05:31:21;12.73;;;4.20;;
76749;SDS011;66447;35.844;14.468;2023-05-18T05:46:23;11.50;;;4.75;;
76749;SDS011;66447;35.844;14.468;2023-05-18T06:01:24;16.90;;;5.38;;
76749;SDS011;66447;35.844;14.468;2023-05-18T06:16:26;19.70;;;4.40;;
76749;SDS011;66447;35.844;14.468;2023-05-18T06:31:28;11.13;;;4.25;;
76749;SDS011;66447;35.844;14.468;2023-05-18T06:46:30;18.25;;;4.57;;
76749;SDS011;66447;35.844;14.468;2023-05-18T07:01:32;31.83;;;6.80;;
76749;SDS011;66447;35.844;14.468;2023-05-18T07:16:34;17.90;;;9.13;;
76749;SDS011;66447;35.844;14.468;2023-05-18T07:31:36;22.07;;;8.77;;
76749;SDS011;66447;35.844;14.468;2023-05-18T07:46:40;15.57;;;4.60;;
76749;SDS011;66447;35.844;14.468;2023-05-18T08:01:43;7.23;;;2.60;;
76749;SDS011;66447;35.844;14.468;2023-05-18T08:16:45;7.87;;;2.10;;
76749;SDS011;66447;35.844;14.468;2023-05-18T08:31:46;9.43;;;2.50;;
76749;SDS011;66447;35.844;14.468;2023-05-18T08:46:48;6.77;;;2.67;;
76749;SDS011;66447;35.844;14.468;2023-05-18T09:01:51;8.57;;;2.90;;
76749;SDS011;66447;35.844;14.468;2023-05-18T09:16:54;9.30;;;2.53;;
76749;SDS011;66447;35.844;14.468;2023-05-18T09:31:56;9.80;;;2.50;;
76749;SDS011;66447;35.844;14.468;2023-05-18T09:47:01;10.57;;;2.60;;
76749;SDS011;66447;35.844;14.468;2023-05-18T10:02:07;8.97;;;2.50;;
76749;SDS011;66447;35.844;14.468;2023-05-18T10:17:12;7.87;;;2.57;;
76749;SDS011;66447;35.844;14.468;2023-05-18T10:32:15;7.50;;;2.50;;
76749;SDS011;66447;35.844;14.468;2023-05-18T10:47:19;6.13;;;2.13;;
76749;SDS011;66447;35.844;14.468;2023-05-18T11:02:24;5.47;;;2.00;;
76749;SDS011;66447;35.844;14.468;2023-05-18T11:17:27;6.40;;;2.23;;
76749;SDS011;66447;35.844;14.468;2023-05-18T11:32:30;9.80;;;4.13;;
76749;SDS011;66447;35.844;14.468;2023-05-18T11:47:33;6.60;;;2.13;;
76749;SDS011;66447;35.844;14.468;2023-05-18T12:02:35;6.63;;;2.45;;
76749;SDS011;66447;35.844;14.468;2023-05-18T12:17:40;4.17;;;2.10;;
76749;SDS011;66447;35.844;14.468;2023-05-18T12:32:46;5.70;;;2.00;;
76749;SDS011;66447;35.844;14.468;2023-05-18T12:47:50;8.80;;;2.37;;
76749;SDS011;66447;35.844;14.468;2023-05-18T13:02:54;3.93;;;1.77;;
76749;SDS011;66447;35.844;14.468;2023-05-18T13:18:06;4.33;;;1.90;;
76749;SDS011;66447;35.844;14.468;2023-05-18T13:33:09;4.17;;;1.87;;
76749;SDS011;66447;35.844;14.468;2023-05-18T13:48:11;9.00;;;2.07;;
76749;SDS011;66447;35.844;14.468;2023-05-18T14:03:13;5.70;;;2.23;;
76749;SDS011;66447;35.844;14.468;2023-05-18T14:18:31;3.70;;;1.83;;
76749;SDS011;66447;35.844;14.468;2023-05-18T14:33:33;7.95;;;2.10;;
76749;SDS011;66447;35.844;14.468;2023-05-18T14:48:35;9.20;;;2.22;;
76749;SDS011;66447;35.844;14.468;2023-05-18T15:03:37;6.18;;;2.30;;
76749;SDS011;66447;35.844;14.468;2023-05-18T15:18:39;7.30;;;2.20;;
76749;SDS011;66447;35.844;14.468;2023-05-18T15:33:41;7.13;;;2.20;;
76749;SDS011;66447;35.844;14.468;2023-05-18T15:48:43;14.15;;;2.90;;
76749;SDS011;66447;35.844;14.468;2023-05-18T16:03:45;9.02;;;2.70;;
76749;SDS011;66447;35.844;14.468;2023-05-18T16:18:48;7.32;;;2.33;;
76749;SDS011;66447;35.844;14.468;2023-05-18T16:33:50;4.75;;;2.22;;
76749;SDS011;66447;35.844;14.468;2023-05-18T16:48:52;10.63;;;2.60;;
76749;SDS011;66447;35.844;14.468;2023-05-18T17:03:54;8.57;;;2.78;;
76749;SDS011;66447;35.844;14.468;2023-05-18T17:18:56;10.52;;;3.10;;
76749;SDS011;66447;35.844;14.468;2023-05-18T17:33:58;16.25;;;4.78;;
76749;SDS011;66447;35.844;14.468;2023-05-18T17:49:00;13.90;;;3.63;;
76749;SDS011;66447;35.844;14.468;2023-05-18T18:04:04;13.27;;;5.00;;
76749;SDS011;66447;35.844;14.468;2023-05-18T18:19:06;21.77;;;6.38;;
76749;SDS011;66447;35.844;14.468;2023-05-18T18:34:09;14.73;;;4.78;;
76749;SDS011;66447;35.844;14.468;2023-05-18T18:49:11;17.10;;;4.90;;
76749;SDS011;66447;35.844;14.468;2023-05-18T19:04:13;17.73;;;5.20;;
76749;SDS011;66447;35.844;14.468;2023-05-18T19:19:15;18.65;;;4.82;;
76749;SDS011;66447;35.844;14.468;2023-05-18T19:34:16;23.20;;;5.47;;
76749;SDS011;66447;35.844;14.468;2023-05-18T19:49:17;17.98;;;5.22;;
76749;SDS011;66447;35.844;14.468;2023-05-18T20:04:18;19.60;;;5.10;;
76749;SDS011;66447;35.844;14.468;2023-05-18T20:19:22;19.40;;;5.00;;
76749;SDS011;66447;35.844;14.468;2023-05-18T20:34:26;16.42;;;3.85;;
76749;SDS011;66447;35.844;14.468;2023-05-18T20:49:30;19.02;;;4.65;;
76749;SDS011;66447;35.844;14.468;2023-05-18T21:04:32;19.40;;;5.28;;
76749;SDS011;66447;35.844;14.468;2023-05-18T21:19:33;15.95;;;4.63;;
76749;SDS011;66447;35.844;14.468;2023-05-18T21:34:35;16.75;;;4.57;;
76749;SDS011;66447;35.844;14.468;2023-05-18T21:49:37;24.85;;;5.38;;
76749;SDS011;66447;35.844;14.468;2023-05-18T22:04:38;19.33;;;4.80;;
76749;SDS011;66447;35.844;14.468;2023-05-18T22:19:40;18.67;;;5.43;;
76749;SDS011;66447;35.844;14.468;2023-05-18T22:34:42;18.85;;;4.57;;
76749;SDS011;66447;35.844;14.468;2023-05-18T22:49:43;17.23;;;4.47;;
76749;SDS011;66447;35.844;14.468;2023-05-18T23:04:45;13.88;;;4.20;;
76749;SDS011;66447;35.844;14.468;2023-05-18T23:19:46;18.38;;;4.20;;
76749;SDS011;66447;35.844;14.468;2023-05-18T23:34:53;12.68;;;4.07;;
76749;SDS011;66447;35.844;14.468;2023-05-18T23:49:55;19.40;;;4.45;;
